Time;durP1;ratioP1;P1;durP2;ratioP2;P2;SDS_P1;SDS_P2;PMS_P1;PMS_P2;Temp;Humidity;BMP_temperature;BMP_pressure;BME280_temperature;BME280_humidity;BME280_pressure;Samples;Min_cycle;Max_cycle;Signal;HPM_P1;HPM_P2
2021/04/27 00:00:00;;;;;;;87.43;65.23;;;19.50;99.90;;;;;;5071301;28;20179;-74
2021/04/27 00:02:27;;;;;;;86.33;64.23;;;19.60;99.90;;;;;;5071287;28;20579;-76
2021/04/27 00:04:55;;;;;;;94.50;69.73;;;19.70;99.90;;;;;;5057375;28;20291;-72
2021/04/27 00:07:22;;;;;;;79.40;61.33;;;19.70;99.90;;;;;;5033418;28;20177;-75
2021/04/27 00:09:49;;;;;;;76.43;56.53;;;19.70;99.90;;;;;;5071556;28;20743;-72
2021/04/27 00:12:17;;;;;;;60.70;48.37;;;19.90;99.90;;;;;;5071224;28;20191;-74
2021/04/27 00:14:44;;;;;;;62.60;46.67;;;19.90;99.90;;;;;;5065596;28;20176;-74
2021/04/27 00:17:11;;;;;;;59.37;44.83;;;20.10;99.90;;;;;;5050148;28;20195;-76
2021/04/27 00:19:39;;;;;;;54.53;40.70;;;20.20;99.90;;;;;;5055277;28;20610;-80
2021/04/27 00:22:06;;;;;;;44.47;35.20;;;20.20;99.90;;;;;;5074508;28;20183;-73
2021/04/27 00:24:34;;;;;;;59.57;44.53;;;20.40;99.90;;;;;;5074365;28;20215;-74
2021/04/27 00:27:02;;;;;;;59.93;42.57;;;20.50;99.90;;;;;;5073402;28;20281;-75
2021/04/27 00:29:29;;;;;;;56.47;42.30;;;20.50;99.90;;;;;;5073908;28;20645;-74
2021/04/27 00:31:57;;;;;;;57.50;43.77;;;20.40;99.90;;;;;;5054372;28;20191;-74
2021/04/27 00:34:24;;;;;;;65.20;44.60;;;20.40;99.90;;;;;;5054889;28;20187;-73
2021/04/27 00:36:54;;;;;;;58.27;44.43;;;20.50;99.90;;;;;;5054623;28;20200;-73
2021/04/27 00:39:22;;;;;;;57.50;41.73;;;20.70;99.90;;;;;;5054687;28;20180;-74
2021/04/27 00:41:49;;;;;;;55.20;40.40;;;20.70;99.90;;;;;;5054957;28;20623;-72
2021/04/27 00:44:17;;;;;;;51.30;38.97;;;20.80;99.90;;;;;;5053266;28;20254;-74
2021/04/27 00:46:44;;;;;;;44.97;35.43;;;20.70;99.90;;;;;;5042058;28;20195;-78
2021/04/27 00:49:11;;;;;;;49.13;37.37;;;20.90;99.90;;;;;;5049965;28;20562;-73
2021/04/27 00:51:39;;;;;;;47.90;37.57;;;21.00;99.90;;;;;;5054401;28;20187;-77
2021/04/27 00:54:07;;;;;;;46.37;36.63;;;21.00;99.90;;;;;;5054913;28;20267;-75
2021/04/27 00:56:36;;;;;;;37.23;27.83;;;21.00;99.90;;;;;;5054278;28;20175;-75
2021/04/27 00:59:04;;;;;;;38.07;29.30;;;21.10;99.90;;;;;;5054397;28;20223;-73
2021/04/27 01:01:32;;;;;;;34.40;25.23;;;21.10;99.90;;;;;;5054308;28;20171;-70
2021/04/27 01:03:59;;;;;;;31.73;23.07;;;21.20;99.90;;;;;;5053830;28;20719;-70
2021/04/27 01:06:27;;;;;;;36.67;27.43;;;21.40;99.90;;;;;;5053596;28;20689;-70
2021/04/27 01:09:12;;;;;;;37.90;26.47;;;21.50;99.90;;;;;;5046552;28;20199;-71
2021/04/27 01:12:00;;;;;;;33.53;25.20;;;21.50;99.90;;;;;;5034160;28;20533;-71
2021/04/27 01:14:35;;;;;;;28.90;21.80;;;21.60;99.90;;;;;;5013991;28;20698;-71
2021/04/27 01:17:10;;;;;;;39.20;21.20;;;21.50;99.90;;;;;;5047126;28;20218;-73
2021/04/27 01:19:42;;;;;;;26.93;20.93;;;21.70;99.90;;;;;;5050319;28;20183;-70
2021/04/27 01:22:19;;;;;;;33.07;22.63;;;21.70;99.90;;;;;;5053487;28;20172;-72
2021/04/27 01:24:57;;;;;;;40.10;26.83;;;21.80;99.90;;;;;;5053779;28;20222;-72
2021/04/27 01:27:24;;;;;;;44.40;29.23;;;21.90;99.90;;;;;;5027801;28;20172;-75
2021/04/27 01:29:53;;;;;;;36.67;25.40;;;21.80;99.90;;;;;;5055635;28;20226;-70
2021/04/27 01:32:21;;;;;;;31.43;22.60;;;21.80;99.90;;;;;;5073270;28;20571;-73
2021/04/27 01:34:49;;;;;;;31.60;20.77;;;22.00;99.90;;;;;;5073665;28;20264;-75
2021/04/27 01:37:17;;;;;;;26.80;18.50;;;22.40;99.20;;;;;;5070359;28;20179;-74
2021/04/27 01:39:45;;;;;;;23.17;18.00;;;22.50;99.30;;;;;;5073482;28;20175;-73
2021/04/27 01:42:14;;;;;;;26.60;17.33;;;22.60;98.70;;;;;;5073390;28;20258;-74
2021/04/27 01:44:43;;;;;;;19.30;15.77;;;22.70;98.50;;;;;;5073096;28;20696;-73
2021/04/27 01:47:11;;;;;;;23.67;16.93;;;22.70;98.30;;;;;;5073176;28;20179;-78
2021/04/27 01:49:43;;;;;;;26.03;16.70;;;22.70;98.40;;;;;;5054649;28;20176;-75
2021/04/27 01:52:12;;;;;;;28.00;17.60;;;22.50;98.20;;;;;;5069261;28;20623;-74
2021/04/27 01:54:40;;;;;;;18.07;11.57;;;22.60;98.80;;;;;;5072545;28;20176;-75
2021/04/27 01:57:07;;;;;;;13.20;9.73;;;22.80;96.70;;;;;;5073301;28;20210;-73
2021/04/27 01:59:35;;;;;;;14.70;10.93;;;23.10;95.10;;;;;;5072929;28;20193;-75
2021/04/27 02:02:03;;;;;;;14.83;10.00;;;23.30;95.40;;;;;;5073286;28;20176;-73
2021/04/27 02:04:30;;;;;;;15.30;11.37;;;23.10;95.20;;;;;;5072850;28;20215;-73
2021/04/27 02:06:58;;;;;;;16.40;11.97;;;23.20;95.90;;;;;;5037511;28;20250;-77
2021/04/27 02:09:27;;;;;;;15.70;10.90;;;23.40;95.70;;;;;;5042464;28;20595;-72
2021/04/27 02:11:56;;;;;;;13.90;8.93;;;23.50;95.00;;;;;;5070195;28;20187;-77
2021/04/27 02:14:29;;;;;;;15.67;8.50;;;23.40;94.90;;;;;;5072332;28;20207;-76
2021/04/27 02:17:06;;;;;;;8.07;6.27;;;23.40;94.00;;;;;;5069752;28;20240;-75
2021/04/27 02:19:34;;;;;;;9.80;5.97;;;23.40;93.40;;;;;;5059922;28;20182;-76
2021/04/27 02:22:05;;;;;;;9.07;6.90;;;23.40;93.40;;;;;;5072689;28;20551;-73
2021/04/27 02:24:35;;;;;;;16.30;7.30;;;23.50;93.70;;;;;;5068942;28;20567;-73
2021/04/27 02:27:04;;;;;;;11.07;7.50;;;24.00;93.60;;;;;;5072556;28;20633;-73
2021/04/27 02:29:34;;;;;;;24.40;8.27;;;24.20;92.10;;;;;;5052287;28;20230;-72
2021/04/27 02:32:02;;;;;;;13.23;7.30;;;24.20;92.00;;;;;;5059843;28;20192;-69
2021/04/27 02:34:29;;;;;;;10.10;7.00;;;24.50;92.20;;;;;;5052795;28;20222;-73
2021/04/27 02:36:58;;;;;;;11.20;7.00;;;24.30;92.00;;;;;;5066376;28;20579;-73
2021/04/27 02:39:25;;;;;;;12.20;5.60;;;24.60;91.10;;;;;;5064493;28;20225;-73
2021/04/27 02:41:53;;;;;;;11.97;6.73;;;25.00;90.30;;;;;;5060056;28;20179;-74
2021/04/27 02:44:22;;;;;;;9.53;6.03;;;25.40;90.10;;;;;;5051931;28;20224;-76
2021/04/27 02:46:49;;;;;;;11.87;7.20;;;25.90;89.20;;;;;;5052752;28;20188;-72
2021/04/27 02:49:17;;;;;;;10.97;7.77;;;25.70;87.70;;;;;;5049987;28;20180;-72
2021/04/27 02:51:44;;;;;;;13.23;7.67;;;25.40;88.20;;;;;;5056861;28;20291;-72
2021/04/27 02:54:12;;;;;;;12.13;7.70;;;24.90;88.70;;;;;;5051186;28;20241;-73
2021/04/27 02:56:39;;;;;;;15.07;8.60;;;24.80;90.10;;;;;;5050780;28;20207;-72
2021/04/27 02:59:07;;;;;;;16.57;9.03;;;24.40;90.80;;;;;;5055897;28;20214;-74
2021/04/27 03:01:35;;;;;;;12.03;8.70;;;24.00;91.00;;;;;;5051887;28;20195;-73
2021/04/27 03:04:04;;;;;;;11.43;8.27;;;23.70;91.40;;;;;;5052972;28;20235;-73
2021/04/27 03:06:32;;;;;;;15.73;9.43;;;23.00;91.90;;;;;;5051533;28;20542;-72
2021/04/27 03:09:00;;;;;;;12.83;8.83;;;23.00;92.80;;;;;;5052393;28;20176;-75
2021/04/27 03:11:28;;;;;;;17.13;9.03;;;23.60;92.10;;;;;;5053559;28;20196;-71
2021/04/27 03:13:56;;;;;;;12.20;8.13;;;23.80;91.50;;;;;;5051088;28;20183;-72
2021/04/27 03:16:24;;;;;;;12.07;8.83;;;23.90;91.30;;;;;;5052867;28;20183;-73
2021/04/27 03:18:52;;;;;;;12.07;9.13;;;24.40;90.80;;;;;;5051905;28;20175;-70
2021/04/27 03:21:19;;;;;;;16.03;8.90;;;25.00;90.60;;;;;;5050359;28;20222;-72
2021/04/27 03:23:47;;;;;;;14.37;8.50;;;25.30;89.90;;;;;;5051528;28;20212;-73
2021/04/27 03:26:14;;;;;;;12.07;8.13;;;25.50;89.10;;;;;;5057739;28;20188;-74
2021/04/27 03:28:43;;;;;;;13.97;8.67;;;25.50;88.30;;;;;;5050236;28;20188;-76
2021/04/27 03:31:11;;;;;;;11.50;7.93;;;25.20;88.00;;;;;;5049894;28;20898;-75
2021/04/27 03:33:38;;;;;;;14.00;7.77;;;25.30;89.30;;;;;;5056164;28;20180;-73
2021/04/27 03:36:06;;;;;;;9.50;7.20;;;26.20;87.10;;;;;;5051452;28;20542;-72
2021/04/27 03:38:33;;;;;;;15.23;7.70;;;26.20;86.60;;;;;;5047646;28;20543;-70
2021/04/27 03:41:01;;;;;;;12.30;8.40;;;26.00;86.90;;;;;;5050784;28;20555;-74
2021/04/27 03:43:29;;;;;;;11.67;7.67;;;26.10;86.80;;;;;;5053587;28;20221;-72
2021/04/27 03:45:57;;;;;;;10.50;7.93;;;25.80;87.10;;;;;;5049728;28;20203;-69
2021/04/27 03:48:25;;;;;;;14.93;8.63;;;25.80;86.70;;;;;;5047932;28;20184;-75
2021/04/27 03:50:53;;;;;;;17.87;9.50;;;26.10;87.10;;;;;;5054928;28;20241;-72
2021/04/27 03:53:20;;;;;;;14.20;10.63;;;26.30;87.10;;;;;;5050596;28;20180;-75
2021/04/27 03:55:47;;;;;;;16.23;10.57;;;25.90;87.30;;;;;;5054782;28;20218;-73
2021/04/27 03:58:15;;;;;;;20.90;13.97;;;25.60;87.90;;;;;;5055811;28;20191;-75
2021/04/27 04:00:42;;;;;;;19.67;13.57;;;25.40;89.60;;;;;;5059215;28;20184;-74
2021/04/27 04:03:10;;;;;;;17.93;12.07;;;25.70;90.10;;;;;;5054875;28;20642;-75
2021/04/27 04:05:37;;;;;;;28.27;15.90;;;25.30;89.40;;;;;;5053825;28;20194;-73
2021/04/27 04:08:05;;;;;;;27.43;18.00;;;25.30;90.70;;;;;;5055007;28;20187;-74
2021/04/27 04:10:32;;;;;;;25.90;15.57;;;25.60;90.90;;;;;;5058928;28;20191;-73
2021/04/27 04:12:59;;;;;;;21.23;14.53;;;25.40;90.70;;;;;;5055286;28;20263;-73
2021/04/27 04:15:27;;;;;;;34.33;21.67;;;25.40;90.40;;;;;;5054992;28;20203;-73
2021/04/27 04:17:54;;;;;;;32.87;22.60;;;25.30;91.70;;;;;;5059890;28;20171;-72
2021/04/27 04:20:25;;;;;;;37.57;25.20;;;24.70;92.30;;;;;;5070592;28;20218;-73
2021/04/27 04:22:53;;;;;;;37.67;23.77;;;24.30;93.70;;;;;;5070589;28;20693;-73
2021/04/27 04:25:20;;;;;;;28.47;22.77;;;25.10;93.30;;;;;;5074819;28;20214;-73
2021/04/27 04:27:48;;;;;;;28.90;21.23;;;25.70;91.70;;;;;;5075061;28;20197;-72
2021/04/27 04:30:22;;;;;;;28.83;20.33;;;25.90;91.40;;;;;;5075130;28;20301;-72
2021/04/27 04:32:49;;;;;;;29.33;19.10;;;26.20;91.30;;;;;;5073634;28;20249;-75
2021/04/27 04:35:19;;;;;;;29.77;18.70;;;26.60;90.80;;;;;;5066368;28;20180;-71
2021/04/27 04:37:47;;;;;;;40.50;20.53;;;26.70;90.30;;;;;;5064670;28;20183;-72
2021/04/27 04:40:15;;;;;;;24.70;17.47;;;26.80;90.10;;;;;;5063866;28;20728;-75
2021/04/27 04:42:43;;;;;;;24.53;17.10;;;26.80;90.10;;;;;;5056394;28;20191;-70
2021/04/27 04:45:13;;;;;;;31.70;17.90;;;26.60;90.10;;;;;;5050957;28;20227;-69
2021/04/27 04:47:46;;;;;;;25.17;17.80;;;26.90;90.00;;;;;;5056831;28;20280;-71
2021/04/27 04:50:16;;;;;;;21.20;14.37;;;26.50;90.70;;;;;;5052987;28;20183;-73
2021/04/27 04:52:47;;;;;;;22.93;15.10;;;26.20;89.70;;;;;;5053525;28;20187;-73
2021/04/27 04:55:15;;;;;;;22.53;14.30;;;26.70;89.90;;;;;;5062056;28;20290;-72
2021/04/27 04:57:45;;;;;;;19.87;14.50;;;26.90;88.90;;;;;;5057098;28;20209;-71
2021/04/27 05:00:16;;;;;;;20.13;14.07;;;26.70;89.10;;;;;;5072333;28;20186;-69
2021/04/27 05:02:44;;;;;;;20.03;14.87;;;26.50;89.20;;;;;;5062182;28;20649;-71
2021/04/27 05:05:12;;;;;;;22.63;14.33;;;26.20;90.10;;;;;;5067415;28;20211;-70
2021/04/27 05:07:44;;;;;;;26.37;14.17;;;25.90;90.30;;;;;;5051155;28;20180;-75
2021/04/27 05:10:14;;;;;;;23.30;14.00;;;26.70;89.50;;;;;;5064416;28;20180;-75
2021/04/27 05:12:41;;;;;;;23.80;14.50;;;26.00;90.30;;;;;;5058574;28;20211;-72
2021/04/27 05:15:10;;;;;;;20.17;15.20;;;26.40;89.70;;;;;;5059750;28;20183;-72
2021/04/27 05:17:38;;;;;;;27.80;15.17;;;26.40;89.70;;;;;;5054150;28;20669;-73
2021/04/27 05:20:06;;;;;;;24.40;14.90;;;26.30;89.70;;;;;;5057911;28;20255;-73
2021/04/27 05:22:33;;;;;;;17.43;14.17;;;26.10;90.00;;;;;;5063827;28;20184;-75
2021/04/27 05:25:01;;;;;;;21.97;14.43;;;25.90;90.20;;;;;;5066305;28;20617;-73
2021/04/27 05:27:28;;;;;;;24.07;15.17;;;26.10;90.30;;;;;;5063518;28;20176;-74
2021/04/27 05:29:56;;;;;;;18.73;12.63;;;26.20;90.10;;;;;;5067024;28;20276;-73
2021/04/27 05:32:23;;;;;;;15.03;11.73;;;26.50;89.50;;;;;;5073935;28;20178;-72
2021/04/27 05:34:51;;;;;;;18.17;11.50;;;26.10;90.40;;;;;;5064806;28;20188;-72
2021/04/27 05:37:18;;;;;;;20.07;12.00;;;26.40;90.10;;;;;;5051284;28;20283;-73
2021/04/27 05:39:45;;;;;;;15.90;11.20;;;26.20;90.10;;;;;;5052623;28;20172;-74
2021/04/27 05:42:13;;;;;;;22.17;11.10;;;25.90;90.50;;;;;;5047350;28;20559;-71
2021/04/27 05:44:40;;;;;;;15.77;10.57;;;25.90;90.20;;;;;;5055276;28;20216;-69
2021/04/27 05:47:07;;;;;;;12.40;9.20;;;25.50;91.00;;;;;;5055127;28;20195;-70
2021/04/27 05:49:35;;;;;;;13.83;9.93;;;25.70;90.90;;;;;;5053532;28;20192;-69
2021/04/27 05:52:02;;;;;;;14.07;9.13;;;25.70;90.60;;;;;;5056192;28;20205;-71
2021/04/27 05:54:29;;;;;;;17.80;9.37;;;25.20;91.00;;;;;;5055707;28;20646;-70
2021/04/27 05:56:57;;;;;;;13.77;8.67;;;25.40;90.80;;;;;;5056315;28;20200;-69
2021/04/27 05:59:24;;;;;;;12.70;8.17;;;25.40;91.00;;;;;;5053885;28;20275;-70
2021/04/27 06:01:52;;;;;;;13.67;8.23;;;25.30;91.10;;;;;;5054427;28;20200;-70
2021/04/27 06:04:19;;;;;;;14.27;8.50;;;25.20;91.00;;;;;;5062568;28;20230;-73
2021/04/27 06:06:47;;;;;;;13.93;8.73;;;25.10;91.20;;;;;;5052211;28;20184;-69
2021/04/27 06:09:16;;;;;;;16.20;8.27;;;25.20;91.30;;;;;;5058394;28;20188;-72
2021/04/27 06:11:44;;;;;;;17.37;8.40;;;24.70;91.50;;;;;;5053024;28;20215;-74
2021/04/27 06:14:12;;;;;;;13.23;9.47;;;24.50;92.00;;;;;;5052770;28;20550;-73
2021/04/27 06:16:40;;;;;;;9.73;7.27;;;24.20;92.20;;;;;;5051416;28;20219;-71
2021/04/27 06:19:07;;;;;;;10.43;7.20;;;23.50;93.30;;;;;;5055126;28;20344;-73
2021/04/27 06:21:35;;;;;;;13.17;7.47;;;23.10;94.30;;;;;;5056464;28;20531;-74
2021/04/27 06:24:02;;;;;;;15.70;8.37;;;22.70;94.80;;;;;;5052706;28;20566;-74
2021/04/27 06:26:30;;;;;;;10.20;6.33;;;22.50;95.50;;;;;;5053153;28;20195;-73
2021/04/27 06:28:57;;;;;;;9.80;6.33;;;22.30;96.20;;;;;;5054210;28;20237;-73
2021/04/27 06:31:25;;;;;;;10.67;6.03;;;22.00;96.50;;;;;;5059328;28;20250;-72
2021/04/27 06:33:56;;;;;;;10.47;5.57;;;21.90;96.60;;;;;;5058716;28;20597;-72
2021/04/27 06:36:23;;;;;;;10.33;5.67;;;21.70;96.90;;;;;;5056056;28;20226;-74
2021/04/27 06:38:51;;;;;;;7.73;5.20;;;21.60;97.40;;;;;;5052878;28;20265;-72
2021/04/27 06:41:18;;;;;;;9.13;5.47;;;21.50;97.80;;;;;;5051857;28;20192;-74
2021/04/27 06:43:46;;;;;;;14.13;5.63;;;21.30;98.20;;;;;;5041176;28;20677;-74
2021/04/27 06:46:13;;;;;;;7.43;4.87;;;21.30;98.60;;;;;;5051896;28;20196;-73
2021/04/27 06:48:41;;;;;;;11.50;5.17;;;21.10;99.10;;;;;;5057350;28;20691;-75
2021/04/27 06:51:09;;;;;;;12.23;4.77;;;21.00;99.90;;;;;;5048647;28;20182;-75
2021/04/27 06:53:37;;;;;;;5.60;4.63;;;20.80;99.90;;;;;;5048150;28;20180;-74
2021/04/27 06:56:04;;;;;;;6.73;4.77;;;20.70;99.90;;;;;;5058507;28;20189;-75
2021/04/27 06:58:32;;;;;;;8.83;4.47;;;20.60;99.90;;;;;;5053867;28;20603;-74
2021/04/27 07:00:59;;;;;;;12.63;5.00;;;20.50;99.90;;;;;;5051408;28;20212;-73
2021/04/27 07:03:27;;;;;;;9.07;4.97;;;20.40;99.90;;;;;;5052171;28;20196;-73
2021/04/27 07:05:54;;;;;;;9.03;5.33;;;20.40;99.90;;;;;;5058890;28;20225;-74
2021/04/27 07:08:22;;;;;;;12.93;4.83;;;20.20;99.90;;;;;;5052365;28;20589;-71
2021/04/27 07:10:51;;;;;;;12.20;4.87;;;20.20;99.90;;;;;;5047485;28;20199;-71
2021/04/27 07:13:18;;;;;;;10.17;4.90;;;20.10;99.90;;;;;;5050402;28;20564;-74
2021/04/27 07:15:46;;;;;;;13.50;4.60;;;20.10;99.90;;;;;;5048350;28;20188;-74
2021/04/27 07:18:14;;;;;;;12.43;5.20;;;19.90;99.90;;;;;;5049924;28;20713;-74
2021/04/27 07:20:43;;;;;;;8.93;5.27;;;19.80;99.90;;;;;;5052093;28;20180;-71
2021/04/27 07:23:10;;;;;;;12.97;5.63;;;19.80;99.90;;;;;;5048988;28;20188;-70
2021/04/27 07:25:38;;;;;;;10.30;5.37;;;19.70;99.90;;;;;;5051715;28;20630;-74
2021/04/27 07:28:07;;;;;;;16.27;5.33;;;19.70;99.90;;;;;;5051759;28;20192;-75
2021/04/27 07:30:36;;;;;;;8.90;5.33;;;19.80;99.90;;;;;;5053780;28;20231;-73
2021/04/27 07:33:04;;;;;;;13.03;5.63;;;19.80;99.90;;;;;;5055012;28;20266;-71
2021/04/27 07:35:32;;;;;;;8.20;5.60;;;19.70;99.90;;;;;;5059698;28;20568;-73
2021/04/27 07:38:02;;;;;;;15.43;10.33;;;19.70;99.90;;;;;;5052224;28;20237;-74
2021/04/27 07:40:31;;;;;;;24.90;12.23;;;19.60;99.90;;;;;;5053277;28;20188;-72
2021/04/27 07:43:00;;;;;;;11.90;7.17;;;19.60;99.90;;;;;;5053267;28;20646;-73
2021/04/27 07:45:30;;;;;;;10.90;6.67;;;19.60;99.90;;;;;;5058338;28;20830;-74
2021/04/27 07:48:07;;;;;;;7.80;5.83;;;19.50;99.90;;;;;;5065322;28;20558;-72
2021/04/27 07:50:35;;;;;;;11.60;6.97;;;19.40;99.90;;;;;;5054794;28;20670;-72
2021/04/27 07:53:04;;;;;;;12.47;6.90;;;19.30;99.90;;;;;;5054603;28;20230;-74
2021/04/27 07:55:33;;;;;;;12.10;6.70;;;19.30;99.90;;;;;;5056552;28;20175;-72
2021/04/27 07:58:00;;;;;;;12.40;7.53;;;19.40;99.90;;;;;;5074688;28;20167;-74
2021/04/27 08:00:27;;;;;;;11.33;7.23;;;19.30;99.90;;;;;;5075405;28;20269;-74
2021/04/27 08:02:55;;;;;;;13.20;7.53;;;19.30;99.90;;;;;;5059303;28;20191;-74
2021/04/27 08:05:23;;;;;;;11.73;6.37;;;19.30;99.90;;;;;;5035382;28;20307;-72
2021/04/27 08:07:51;;;;;;;11.70;6.77;;;19.20;99.90;;;;;;5036361;28;20754;-73
2021/04/27 08:10:19;;;;;;;19.00;8.73;;;19.20;99.90;;;;;;5056490;28;20184;-74
2021/04/27 08:12:49;;;;;;;23.33;14.77;;;19.10;99.90;;;;;;5055174;28;20175;-74
2021/04/27 08:15:19;;;;;;;23.60;12.27;;;19.20;99.90;;;;;;5054382;28;20258;-73
2021/04/27 08:17:47;;;;;;;17.13;12.43;;;19.10;99.90;;;;;;5061407;28;20175;-74
2021/04/27 08:20:15;;;;;;;12.40;7.50;;;19.00;99.90;;;;;;5069619;28;20233;-73
2021/04/27 08:22:45;;;;;;;10.73;6.83;;;19.00;99.90;;;;;;5075532;28;20194;-73
2021/04/27 08:25:14;;;;;;;10.90;6.93;;;19.00;99.90;;;;;;5065347;28;20569;-73
2021/04/27 08:27:43;;;;;;;17.67;12.00;;;19.00;99.90;;;;;;5055435;28;20519;-71
2021/04/27 08:30:11;;;;;;;15.20;9.30;;;18.90;99.90;;;;;;5056490;28;20269;-73
2021/04/27 08:32:39;;;;;;;15.90;7.83;;;18.90;99.90;;;;;;5056292;28;20188;-73
2021/04/27 08:35:08;;;;;;;22.27;11.00;;;18.90;99.90;;;;;;5074830;28;20183;-75
2021/04/27 08:37:36;;;;;;;13.20;8.17;;;18.90;99.90;;;;;;5055212;28;20188;-73
2021/04/27 08:40:06;;;;;;;12.97;7.33;;;18.90;99.90;;;;;;5062191;28;20214;-73
2021/04/27 08:42:35;;;;;;;12.07;8.33;;;18.80;99.90;;;;;;5062330;28;20183;-75
2021/04/27 08:45:08;;;;;;;13.80;8.13;;;18.80;99.90;;;;;;5068553;28;20212;-75
2021/04/27 08:47:35;;;;;;;14.47;8.90;;;18.70;99.90;;;;;;5053425;28;20241;-71
2021/04/27 08:50:05;;;;;;;24.13;10.13;;;18.70;99.90;;;;;;5051321;28;20258;-74
2021/04/27 08:52:32;;;;;;;15.73;8.97;;;18.60;99.90;;;;;;5073481;28;20648;-74
2021/04/27 08:54:59;;;;;;;13.77;9.43;;;18.70;99.90;;;;;;5064272;28;20175;-72
2021/04/27 08:57:27;;;;;;;16.10;11.43;;;18.60;99.90;;;;;;5056951;28;20510;-74
2021/04/27 08:59:54;;;;;;;12.40;9.30;;;18.60;99.90;;;;;;5069643;28;20265;-74
2021/04/27 09:02:30;;;;;;;15.37;9.90;;;18.60;99.90;;;;;;5052369;28;20172;-73
2021/04/27 09:04:58;;;;;;;16.97;9.93;;;18.60;99.90;;;;;;5052284;28;20211;-73
2021/04/27 09:07:28;;;;;;;18.07;10.30;;;18.60;99.90;;;;;;5056793;28;20212;-73
2021/04/27 09:09:59;;;;;;;17.23;9.30;;;18.50;99.90;;;;;;5062879;28;20182;-73
2021/04/27 09:12:32;;;;;;;17.50;9.17;;;18.50;99.90;;;;;;5057290;28;20191;-72
2021/04/27 09:15:00;;;;;;;17.63;8.43;;;18.40;99.90;;;;;;5051276;28;20180;-73
2021/04/27 09:17:30;;;;;;;14.77;9.17;;;18.40;99.90;;;;;;5052862;28;20212;-72
2021/04/27 09:19:59;;;;;;;14.53;8.77;;;18.50;99.90;;;;;;5056192;28;20548;-72
2021/04/27 09:22:30;;;;;;;13.10;8.87;;;18.40;99.90;;;;;;5053034;28;20180;-73
2021/04/27 09:25:01;;;;;;;15.47;9.33;;;18.30;99.90;;;;;;5056179;28;20612;-73
2021/04/27 09:27:54;;;;;;;12.67;9.77;;;18.30;99.90;;;;;;5051975;28;20237;-73
2021/04/27 09:30:28;;;;;;;12.80;9.17;;;18.30;99.90;;;;;;5054210;28;20766;-73
2021/04/27 09:33:01;;;;;;;13.87;9.60;;;18.20;99.90;;;;;;5052502;28;20188;-72
2021/04/27 09:35:42;;;;;;;15.93;9.23;;;18.20;99.90;;;;;;5063584;28;20195;-73
2021/04/27 09:38:16;;;;;;;14.20;8.93;;;18.20;99.90;;;;;;5057066;28;20199;-73
2021/04/27 09:41:02;;;;;;;15.23;8.80;;;18.10;99.90;;;;;;5056318;28;20180;-74
2021/04/27 09:43:36;;;;;;;12.27;8.97;;;18.10;99.90;;;;;;5053150;28;20191;-74
2021/04/27 09:49:30;;;;;;;17.50;8.80;;;18.00;99.90;;;;;;5043151;28;20235;-72
2021/04/27 09:51:57;;;;;;;16.53;9.40;;;17.90;99.90;;;;;;5051255;28;20561;-73
2021/04/27 09:54:25;;;;;;;12.97;8.43;;;17.90;99.90;;;;;;5052173;28;20216;-74
2021/04/27 09:56:54;;;;;;;13.93;8.20;;;17.90;99.90;;;;;;5053781;28;20176;-74
2021/04/27 09:59:34;;;;;;;14.00;8.63;;;17.90;99.90;;;;;;5052313;28;20238;-71
2021/04/27 10:02:09;;;;;;;13.23;8.07;;;17.80;99.90;;;;;;5050952;28;20262;-73
2021/04/27 10:04:40;;;;;;;12.93;7.83;;;17.80;99.90;;;;;;5052882;28;20247;-74
2021/04/27 10:07:08;;;;;;;16.70;8.23;;;17.70;99.90;;;;;;5053333;28;20254;-74
2021/04/27 10:09:36;;;;;;;14.87;8.10;;;17.70;99.90;;;;;;5051484;28;20187;-73
2021/04/27 10:12:06;;;;;;;11.80;7.87;;;17.70;99.90;;;;;;5053116;28;20183;-74
2021/04/27 10:14:34;;;;;;;13.83;8.17;;;17.60;99.90;;;;;;5052417;28;20187;-73
2021/04/27 10:17:02;;;;;;;9.40;7.27;;;17.60;99.90;;;;;;5052227;28;20255;-73
2021/04/27 10:19:30;;;;;;;10.93;6.90;;;17.60;99.90;;;;;;5052452;28;20732;-75
2021/04/27 10:21:57;;;;;;;11.63;7.73;;;17.50;99.90;;;;;;5052352;28;20180;-71
2021/04/27 10:24:26;;;;;;;11.93;7.87;;;17.50;99.90;;;;;;5052542;28;20222;-72
2021/04/27 10:26:54;;;;;;;16.57;8.63;;;17.40;99.90;;;;;;5053193;28;20184;-69
2021/04/27 10:29:26;;;;;;;12.87;9.43;;;17.40;99.90;;;;;;5053362;28;20572;-69
2021/04/27 10:32:21;;;;;;;17.00;10.67;;;17.40;99.90;;;;;;5048147;28;20653;-69
2021/04/27 10:34:58;;;;;;;13.97;9.10;;;17.30;99.90;;;;;;5043140;28;20216;-70
2021/04/27 10:37:27;;;;;;;16.63;9.07;;;17.30;99.90;;;;;;5054308;28;20569;-71
2021/04/27 10:39:55;;;;;;;16.20;8.67;;;17.30;99.90;;;;;;5053090;28;20195;-71
2021/04/27 10:42:29;;;;;;;13.27;7.93;;;17.30;99.90;;;;;;5054342;28;20274;-73
2021/04/27 10:45:06;;;;;;;16.23;8.00;;;17.30;99.90;;;;;;5053354;28;20577;-71
2021/04/27 10:47:45;;;;;;;9.03;6.70;;;17.30;99.90;;;;;;5053535;28;20176;-74
2021/04/27 10:50:36;;;;;;;14.23;7.60;;;17.30;99.90;;;;;;5053382;28;20268;-70
2021/04/27 10:53:36;;;;;;;14.70;8.50;;;17.30;99.90;;;;;;5051327;28;20573;-72
2021/04/27 10:56:06;;;;;;;13.47;8.63;;;17.30;99.90;;;;;;5051393;28;20285;-71
2021/04/27 10:58:54;;;;;;;17.80;9.10;;;17.30;99.90;;;;;;5053601;28;20643;-74
2021/04/27 11:01:28;;;;;;;11.00;8.20;;;17.30;99.90;;;;;;5037944;28;20180;-73
2021/04/27 11:03:57;;;;;;;15.23;9.43;;;17.40;99.90;;;;;;5045099;28;20207;-72
2021/04/27 11:06:26;;;;;;;15.27;8.50;;;17.30;99.90;;;;;;5050972;28;20210;-72
2021/04/27 11:08:59;;;;;;;14.10;8.50;;;17.40;99.90;;;;;;5052344;28;20782;-72
2021/04/27 11:11:28;;;;;;;16.00;7.97;;;17.40;99.90;;;;;;5052171;28;20175;-73
2021/04/27 11:14:21;;;;;;;17.10;8.27;;;17.40;99.90;;;;;;5047037;28;20186;-74
2021/04/27 11:16:56;;;;;;;12.63;8.17;;;17.40;99.90;;;;;;5050819;28;20183;-72
2021/04/27 11:19:27;;;;;;;14.77;8.07;;;17.40;99.90;;;;;;5060029;28;20684;-74
2021/04/27 11:22:16;;;;;;;10.37;7.73;;;17.50;99.90;;;;;;5068318;28;20547;-73
2021/04/27 11:24:44;;;;;;;16.30;7.80;;;17.50;99.90;;;;;;5072598;28;20647;-73
2021/04/27 11:27:25;;;;;;;10.50;7.23;;;17.40;99.90;;;;;;5041919;28;20188;-74
2021/04/27 11:30:14;;;;;;;12.80;6.90;;;17.40;99.90;;;;;;5052021;28;20256;-74
2021/04/27 11:32:44;;;;;;;10.43;6.60;;;17.40;99.90;;;;;;5050824;28;20203;-74
2021/04/27 11:35:18;;;;;;;8.57;6.23;;;17.40;99.90;;;;;;5051888;28;20227;-74
2021/04/27 11:37:48;;;;;;;12.67;6.43;;;17.40;99.90;;;;;;5052033;28;20258;-73
2021/04/27 11:40:25;;;;;;;13.03;6.10;;;17.40;99.90;;;;;;5051743;28;20570;-74
2021/04/27 11:43:01;;;;;;;14.00;6.67;;;17.30;99.90;;;;;;5050111;28;20190;-71
2021/04/27 11:45:39;;;;;;;11.73;6.50;;;17.30;99.90;;;;;;5051671;28;20211;-73
2021/04/27 11:48:14;;;;;;;12.87;7.40;;;17.40;99.90;;;;;;5050088;28;20184;-71
2021/04/27 11:50:42;;;;;;;14.57;6.87;;;17.30;99.90;;;;;;5051176;28;20567;-69
2021/04/27 11:53:21;;;;;;;15.40;7.60;;;17.40;99.90;;;;;;5051972;28;20199;-72
2021/04/27 11:55:57;;;;;;;19.80;7.90;;;17.40;99.90;;;;;;5050980;28;20302;-73
2021/04/27 11:58:28;;;;;;;16.93;8.37;;;17.50;99.90;;;;;;5051829;28;20188;-75
2021/04/27 12:01:01;;;;;;;11.53;8.13;;;17.40;99.90;;;;;;5052183;28;20544;-73
2021/04/27 12:03:38;;;;;;;14.60;7.87;;;17.50;99.90;;;;;;5051435;28;20176;-73
2021/04/27 12:06:13;;;;;;;14.77;7.90;;;17.40;99.90;;;;;;5050733;28;20543;-72
2021/04/27 12:08:47;;;;;;;11.50;7.43;;;17.40;99.90;;;;;;5051361;28;20219;-73
2021/04/27 12:11:19;;;;;;;16.63;8.40;;;17.40;99.90;;;;;;5051547;28;20191;-73
2021/04/27 12:13:52;;;;;;;12.30;7.77;;;17.40;99.90;;;;;;5053839;28;20176;-73
2021/04/27 12:16:24;;;;;;;10.17;7.10;;;17.40;99.90;;;;;;5054896;28;20591;-75
2021/04/27 12:18:57;;;;;;;13.93;6.87;;;17.40;99.90;;;;;;5052201;28;20227;-72
2021/04/27 12:21:43;;;;;;;10.10;6.80;;;17.50;99.90;;;;;;5055475;28;20187;-74
2021/04/27 12:24:30;;;;;;;11.70;6.87;;;17.50;99.90;;;;;;5054250;28;20287;-73
2021/04/27 12:27:12;;;;;;;15.30;8.47;;;17.50;99.90;;;;;;5055472;28;20274;-72
2021/04/27 12:29:43;;;;;;;15.77;8.33;;;17.50;99.90;;;;;;5055088;28;20203;-73
2021/04/27 12:32:14;;;;;;;18.17;9.23;;;17.40;99.90;;;;;;5046848;28;20245;-73
2021/04/27 12:34:55;;;;;;;15.03;8.37;;;17.30;99.90;;;;;;5054975;28;20236;-73
2021/04/27 12:37:24;;;;;;;18.47;8.33;;;17.30;99.90;;;;;;5055068;28;20203;-73
2021/04/27 12:39:52;;;;;;;15.13;8.80;;;17.30;99.90;;;;;;5054687;28;20184;-74
2021/04/27 12:42:25;;;;;;;21.07;9.90;;;17.40;99.90;;;;;;5053751;28;20184;-74
2021/04/27 12:45:08;;;;;;;20.57;9.50;;;17.40;99.90;;;;;;5055126;28;20219;-74
2021/04/27 12:47:37;;;;;;;21.90;9.63;;;17.30;99.90;;;;;;5051693;28;20252;-72
2021/04/27 12:50:05;;;;;;;28.93;9.83;;;17.20;99.90;;;;;;5055323;28;20264;-73